Airfield :







YOU CAN JOIN US ON...

 
LOGIN :

Register | Disclaimer

   EN    FR    IT 

 









Legend :    VFR   Marginal VFR   IFR   Intensive IFR   Very Intensive IFR
Visi :
Ceiling :
>= 8 km
>= 3000ft
5 to 8 km
1000 to 3000 ft
1500m to 5 km
500 to 1000 ft
800 to 1500m
200 to 500 ft
< 800m
< 200 ft
Symbols :   Thunderstorms  Fog  Heavy snow  Heavy precipitations  Wind > 20 kt






- Airport Elevation : 357 ft
- IATA code : YSJ


CYSJ - Saint John

CURRENT METAR :
  • 250000Z 19004KT 15SM SCT099 BKN250 19/16 A3020 RMK AC3CI2 SLP228 DENSITY ALT 600FT

EXPIRED METARs :
  • 242300Z 22005KT 15SM BKN100 BKN250 21/16 A3020 RMK AC6CI1 SLP231 DENSITY ALT 800FT
  • 242200Z 23006KT 15SM BKN100 BKN250 21/16 A3021 RMK AC5CI2 TCU TOPS DIST NE SLP232 DENSITY ALT 900FT
  • 242100Z 23004KT 15SM FEW020TCU BKN100 BKN250 22/16 A3021 RMK TCU1AC5CI2 TCU TR TCU N-NE SLP233 DENSITY ALT 1000FT
  • 242000Z 22007KT 190V250 12SM FEW025TCU FEW080 BKN250 22/16 A3023 RMK TCU1AC2CI5 TCU TR SLP239 DENSITY ALT 1000FT

TAF TAF CYSJ
Valid from the 25 at 00:00 until the 25 at 12:00 UTC


242340Z 2500/2512 22008KT P6SM FEW030 BKN080
FM250100 20006KT P6SM BKN025 BKN080
TEMPO 2501/2504 FEW004 BKN020
PROB30 2501/2504 2SM BR BKN004
FM250400 VRB03KT 5SM BR SCT004 BKN020
BECMG 2504/2506 1/2SM -DZ FG VV002
FM251000 13008KT 6SM BR SCT002 BKN060 RMK NXT FCST BY 250600Z
CZQM FIR / North America



MET'MAP, your aeronautical weather chart ! - Copyright ORBIFLY December 2007 - Disclaimer

ORBIFLY MET'MAP TEAM :

Programming & Development : Alexandra Zaïnal
Original concept : Baudouin d'Aumeries
Technical & hardware support : Manuel Goepfert
Assistance : Marc-Olivier Méhu




SOURCES & CREDITS :

   NOAA